Time;durP1;ratioP1;P1;durP2;ratioP2;P2;SDS_P1;SDS_P2;PMS_P1;PMS_P2;Temp;Humidity;BMP_temperature;BMP_pressure;BME280_temperature;BME280_humidity;BME280_pressure;Samples;Min_cycle;Max_cycle;Signal;HPM_P1;HPM_P2
2023/09/14 00:00:46;;;;;;;4.63;4.00;;;19.60;88.20;;;;;;4994212;28;20469;-64
2023/09/14 00:03:13;;;;;;;4.43;4.03;;;19.50;88.20;;;;;;4996571;28;20375;-64
2023/09/14 00:05:40;;;;;;;4.00;3.70;;;19.50;88.30;;;;;;4997637;28;20026;-63
2023/09/14 00:08:05;;;;;;;4.13;3.72;;;19.40;88.20;;;;;;4996612;28;20069;-62
2023/09/14 00:10:32;;;;;;;4.28;3.88;;;19.40;88.40;;;;;;4994264;28;21068;-64
2023/09/14 00:12:58;;;;;;;3.85;3.55;;;19.30;88.50;;;;;;4995063;28;20057;-64
2023/09/14 00:15:24;;;;;;;3.70;3.40;;;19.30;88.40;;;;;;4993793;28;20041;-63
2023/09/14 00:17:49;;;;;;;4.13;3.83;;;19.30;88.40;;;;;;4996810;28;20043;-64
2023/09/14 00:20:23;;;;;;;4.47;4.07;;;19.20;88.40;;;;;;4993947;28;20048;-63
2023/09/14 00:22:50;;;;;;;5.10;3.72;;;19.10;88.50;;;;;;4996431;28;20041;-64
2023/09/14 00:25:19;;;;;;;3.97;3.60;;;19.10;88.40;;;;;;4999345;28;20033;-63
2023/09/14 00:27:46;;;;;;;4.32;3.63;;;19.00;88.50;;;;;;4995453;28;20052;-64
2023/09/14 00:30:12;;;;;;;3.80;3.50;;;19.00;88.50;;;;;;4995228;28;20030;-64
2023/09/14 00:32:42;;;;;;;4.03;3.65;;;18.90;88.70;;;;;;4998035;28;20490;-64
2023/09/14 00:35:12;;;;;;;4.05;3.65;;;18.90;88.80;;;;;;4996582;28;20048;-64
2023/09/14 00:37:38;;;;;;;3.67;3.47;;;18.80;88.90;;;;;;4997518;28;20069;-64
2023/09/14 00:40:08;;;;;;;4.05;3.67;;;18.80;89.20;;;;;;4998029;28;20472;-64
2023/09/14 00:42:48;;;;;;;3.53;3.30;;;18.70;89.20;;;;;;4996596;28;20022;-64
2023/09/14 00:45:15;;;;;;;3.80;3.50;;;18.70;89.40;;;;;;4999989;28;20022;-64
2023/09/14 00:47:58;;;;;;;3.97;3.67;;;18.70;89.30;;;;;;4998257;28;20038;-64
2023/09/14 00:50:26;;;;;;;4.45;4.05;;;18.70;89.30;;;;;;4998120;28;20393;-63
2023/09/14 00:53:03;;;;;;;4.38;4.03;;;18.70;89.30;;;;;;4996183;28;20037;-63
2023/09/14 00:55:29;;;;;;;5.25;4.10;;;18.60;89.20;;;;;;4998586;28;20456;-64
2023/09/14 00:57:56;;;;;;;4.22;3.88;;;18.60;90.00;;;;;;4998871;28;20050;-64
2023/09/14 01:00:22;;;;;;;5.20;4.07;;;18.60;89.30;;;;;;4998249;28;20048;-64
2023/09/14 01:02:51;;;;;;;4.05;3.75;;;18.60;89.30;;;;;;4999586;28;20677;-64
2023/09/14 01:05:18;;;;;;;4.35;3.80;;;18.50;89.40;;;;;;4993427;28;20494;-64
2023/09/14 01:07:44;;;;;;;4.75;3.65;;;18.50;89.30;;;;;;4993369;28;20085;-64
2023/09/14 01:10:10;;;;;;;3.88;3.58;;;18.50;89.50;;;;;;4997495;28;20127;-64
2023/09/14 01:12:36;;;;;;;4.25;3.95;;;18.50;89.60;;;;;;4992920;28;20590;-64
2023/09/14 01:15:08;;;;;;;4.30;3.90;;;18.50;89.70;;;;;;4998034;28;20057;-64
2023/09/14 01:18:01;;;;;;;4.18;3.78;;;18.50;89.90;;;;;;4997188;28;20045;-64
2023/09/14 01:20:48;;;;;;;4.30;3.83;;;18.50;89.90;;;;;;4994770;28;20513;-64
2023/09/14 01:23:47;;;;;;;3.95;3.58;;;18.50;89.50;;;;;;4995641;28;20087;-63
2023/09/14 01:26:14;;;;;;;4.88;3.97;;;18.50;89.00;;;;;;4999916;28;20045;-64
2023/09/14 01:28:40;;;;;;;4.57;3.53;;;18.50;89.50;;;;;;4995285;28;20038;-64
2023/09/14 01:31:06;;;;;;;5.05;3.80;;;18.50;88.80;;;;;;4996657;28;20045;-64
2023/09/14 01:33:32;;;;;;;4.30;3.72;;;18.40;88.80;;;;;;4992376;28;20034;-64
2023/09/14 01:36:04;;;;;;;3.70;3.40;;;18.40;88.80;;;;;;4997495;28;20120;-64
2023/09/14 01:38:31;;;;;;;4.22;3.83;;;18.40;89.20;;;;;;4994057;28;20571;-64
2023/09/14 01:40:57;;;;;;;3.90;3.50;;;18.40;89.40;;;;;;4996349;28;20038;-64
2023/09/14 01:43:23;;;;;;;3.80;3.50;;;18.40;89.50;;;;;;4995179;28;20030;-64
2023/09/14 01:45:50;;;;;;;4.35;3.55;;;18.40;89.60;;;;;;4993186;28;20125;-64
2023/09/14 01:48:18;;;;;;;4.03;3.63;;;18.40;89.70;;;;;;4995338;28;20046;-64
2023/09/14 01:50:44;;;;;;;4.30;3.90;;;18.40;89.80;;;;;;4993141;28;20053;-64
2023/09/14 01:53:10;;;;;;;4.30;3.90;;;18.40;89.70;;;;;;4994167;28;20466;-64
2023/09/14 01:55:36;;;;;;;4.50;3.92;;;18.40;89.60;;;;;;4994237;28;20143;-64
2023/09/14 01:58:02;;;;;;;4.30;3.90;;;18.40;89.50;;;;;;4995319;28;20145;-64
2023/09/14 02:00:27;;;;;;;6.43;4.05;;;18.40;89.50;;;;;;4993935;28;20026;-64
2023/09/14 02:02:53;;;;;;;4.85;3.95;;;18.40;89.60;;;;;;4993788;28;20330;-63
2023/09/14 02:05:19;;;;;;;4.53;4.10;;;18.30;89.70;;;;;;4995084;28;20037;-64
2023/09/14 02:07:45;;;;;;;4.22;3.83;;;18.30;89.90;;;;;;4996127;28;20073;-64
2023/09/14 02:10:11;;;;;;;5.93;4.50;;;18.30;90.00;;;;;;4993817;28;20034;-63
2023/09/14 02:12:36;;;;;;;4.50;4.10;;;18.30;90.10;;;;;;4993717;28;20518;-63
2023/09/14 02:15:02;;;;;;;4.78;4.38;;;18.30;90.20;;;;;;4996146;28;20118;-64
2023/09/14 02:17:30;;;;;;;4.32;4.00;;;18.20;90.20;;;;;;4993927;28;20547;-64
2023/09/14 02:19:56;;;;;;;6.28;4.50;;;18.30;90.20;;;;;;4993588;28;20458;-64
2023/09/14 02:22:22;;;;;;;5.03;4.30;;;18.20;90.30;;;;;;4993735;28;20770;-63
2023/09/14 02:24:48;;;;;;;4.93;4.47;;;18.30;90.30;;;;;;4995080;28;20044;-64
2023/09/14 02:27:13;;;;;;;4.72;4.30;;;18.20;90.80;;;;;;4998580;28;20045;-64
2023/09/14 02:29:39;;;;;;;4.65;4.13;;;18.20;90.40;;;;;;4994400;28;20039;-64
2023/09/14 02:32:07;;;;;;;4.85;4.30;;;18.30;90.40;;;;;;4993542;28;20042;-64
2023/09/14 02:34:32;;;;;;;4.22;3.92;;;18.30;90.40;;;;;;4994396;28;20607;-63
2023/09/14 02:36:58;;;;;;;5.13;4.55;;;18.30;90.50;;;;;;4995456;28;20118;-64
2023/09/14 02:39:23;;;;;;;5.72;4.15;;;18.30;90.50;;;;;;4995643;28;20575;-64
2023/09/14 02:41:49;;;;;;;6.80;4.60;;;18.30;90.50;;;;;;5009833;28;20413;-64
2023/09/14 02:44:14;;;;;;;5.10;4.70;;;18.30;90.50;;;;;;4992642;28;20532;-63
2023/09/14 02:46:40;;;;;;;5.70;4.85;;;18.40;90.50;;;;;;4990921;28;20073;-64
2023/09/14 02:49:05;;;;;;;5.13;4.68;;;18.40;90.40;;;;;;4989003;28;20038;-64
2023/09/14 02:51:31;;;;;;;6.40;5.15;;;18.40;90.30;;;;;;4993301;28;20030;-64
2023/09/14 02:53:56;;;;;;;5.47;4.97;;;18.40;90.30;;;;;;4994797;28;20058;-64
2023/09/14 02:56:22;;;;;;;5.38;4.93;;;18.40;90.30;;;;;;4996152;28;20030;-64
2023/09/14 02:58:50;;;;;;;6.35;4.70;;;18.40;90.40;;;;;;5000447;28;20038;-64
2023/09/14 03:01:15;;;;;;;4.88;4.47;;;18.40;90.40;;;;;;4995051;28;20041;-63
2023/09/14 03:03:41;;;;;;;5.70;5.05;;;18.40;90.50;;;;;;4992389;28;20068;-64
2023/09/14 03:06:06;;;;;;;5.40;4.90;;;18.40;90.50;;;;;;4992207;28;20069;-64
2023/09/14 03:08:32;;;;;;;6.80;4.22;;;18.40;90.40;;;;;;4994170;28;20030;-64
2023/09/14 03:11:00;;;;;;;5.38;4.88;;;18.40;90.40;;;;;;4989837;28;20456;-64
2023/09/14 03:13:26;;;;;;;5.50;5.00;;;18.40;90.40;;;;;;4993570;28;20026;-64
2023/09/14 03:15:54;;;;;;;5.80;5.20;;;18.40;90.40;;;;;;4992486;28;20491;-64
2023/09/14 03:18:20;;;;;;;5.30;4.82;;;18.40;90.40;;;;;;4990115;28;20509;-64
2023/09/14 03:20:51;;;;;;;6.68;4.95;;;18.40;90.50;;;;;;4992233;28;20113;-64
2023/09/14 03:23:17;;;;;;;7.30;5.15;;;18.40;90.60;;;;;;4994958;28;20505;-62
2023/09/14 03:25:43;;;;;;;5.68;4.85;;;18.40;90.50;;;;;;4995177;28;20087;-63
2023/09/14 03:28:08;;;;;;;7.28;4.88;;;18.40;90.50;;;;;;4990876;28;20047;-63
2023/09/14 03:30:38;;;;;;;6.07;4.95;;;18.40;90.60;;;;;;4992631;28;20567;-64
2023/09/14 03:33:04;;;;;;;6.15;4.88;;;18.40;90.70;;;;;;4990395;28;20058;-64
2023/09/14 03:35:29;;;;;;;5.68;5.18;;;18.40;90.70;;;;;;4993983;28;20184;-64
2023/09/14 03:37:55;;;;;;;6.15;5.55;;;18.40;90.70;;;;;;4994201;28;20072;-64
2023/09/14 03:40:21;;;;;;;10.32;5.63;;;18.40;90.70;;;;;;4995296;28;20031;-63
2023/09/14 03:42:49;;;;;;;8.55;5.65;;;18.50;90.70;;;;;;4992841;28;20042;-64
2023/09/14 03:45:15;;;;;;;7.03;5.80;;;18.50;90.60;;;;;;4991638;28;20128;-64
2023/09/14 03:47:41;;;;;;;6.97;5.90;;;18.50;90.60;;;;;;4995456;28;20554;-64
2023/09/14 03:50:08;;;;;;;6.28;5.68;;;18.50;90.50;;;;;;4993844;28;20130;-63
2023/09/14 03:52:33;;;;;;;6.97;5.60;;;18.50;90.40;;;;;;4993889;28;20060;-63
2023/09/14 03:54:59;;;;;;;6.60;5.78;;;18.50;90.50;;;;;;4996045;28;20410;-64
2023/09/14 03:57:24;;;;;;;6.57;5.47;;;18.50;90.60;;;;;;4994991;28;20272;-64
2023/09/14 03:59:51;;;;;;;7.90;6.38;;;18.40;90.50;;;;;;4995336;28;20063;-63
2023/09/14 04:02:17;;;;;;;7.38;5.68;;;18.40;90.60;;;;;;4996677;28;20022;-63
2023/09/14 04:04:43;;;;;;;7.45;6.00;;;18.40;90.70;;;;;;4994547;28;20038;-64
2023/09/14 04:07:10;;;;;;;7.32;6.28;;;18.40;90.70;;;;;;4992887;28;20590;-63
2023/09/14 04:09:36;;;;;;;7.00;6.07;;;18.40;90.80;;;;;;4991335;28;20092;-63
2023/09/14 04:12:02;;;;;;;7.28;6.45;;;18.30;91.10;;;;;;4993626;28;20096;-64
2023/09/14 04:14:28;;;;;;;7.10;6.40;;;18.30;90.80;;;;;;4992800;28;20038;-63
2023/09/14 04:16:57;;;;;;;8.18;6.55;;;18.30;90.80;;;;;;4992236;28;20092;-63
2023/09/14 04:19:24;;;;;;;7.45;6.45;;;18.30;90.80;;;;;;4990516;28;20034;-63
2023/09/14 04:21:49;;;;;;;7.10;6.30;;;18.30;90.80;;;;;;4992832;28;20482;-63
2023/09/14 04:24:15;;;;;;;10.48;6.93;;;18.30;90.80;;;;;;4991836;28;20089;-63
2023/09/14 04:26:41;;;;;;;7.57;6.38;;;18.30;90.80;;;;;;4994172;28;20510;-63
2023/09/14 04:29:06;;;;;;;7.93;6.85;;;18.30;90.80;;;;;;4993694;28;20057;-64
2023/09/14 04:31:32;;;;;;;7.63;6.65;;;18.30;90.80;;;;;;4986394;28;20034;-63
2023/09/14 04:33:57;;;;;;;9.15;7.25;;;18.30;90.80;;;;;;4993691;28;20120;-63
2023/09/14 04:36:23;;;;;;;9.00;6.78;;;18.30;90.90;;;;;;4991505;28;20041;-63
2023/09/14 04:38:49;;;;;;;8.00;7.03;;;18.30;90.90;;;;;;4995344;28;20049;-64
2023/09/14 04:41:15;;;;;;;9.00;7.45;;;18.20;90.90;;;;;;4995871;28;20146;-63
2023/09/14 04:43:40;;;;;;;11.98;7.22;;;18.20;91.00;;;;;;4995547;28;20153;-63
2023/09/14 04:46:06;;;;;;;9.20;7.50;;;18.20;91.00;;;;;;4997928;28;20125;-64
2023/09/14 04:48:32;;;;;;;8.48;7.57;;;18.20;91.10;;;;;;4996472;28;20061;-64
2023/09/14 04:50:58;;;;;;;8.35;7.38;;;18.20;91.20;;;;;;4996931;28;20129;-64
2023/09/14 04:53:25;;;;;;;9.23;7.50;;;18.20;91.20;;;;;;4988527;28;20643;-64
2023/09/14 04:55:51;;;;;;;9.27;8.23;;;18.20;91.20;;;;;;4990339;28;20065;-63
2023/09/14 04:58:17;;;;;;;9.48;7.85;;;18.20;91.70;;;;;;4991090;28;20465;-63
2023/09/14 05:00:43;;;;;;;9.18;8.18;;;18.30;91.30;;;;;;4987457;28;20141;-64
2023/09/14 05:03:08;;;;;;;12.27;8.35;;;18.30;91.30;;;;;;4992972;28;20035;-64
2023/09/14 05:05:34;;;;;;;11.45;8.52;;;18.30;91.30;;;;;;4996859;28;20508;-63
2023/09/14 05:08:00;;;;;;;10.65;9.07;;;18.30;91.20;;;;;;4994520;28;20100;-64
2023/09/14 05:10:28;;;;;;;14.13;9.15;;;18.30;91.20;;;;;;4993539;28;20248;-64
2023/09/14 05:12:54;;;;;;;10.80;8.77;;;18.30;91.20;;;;;;4994509;28;20038;-64
2023/09/14 05:15:19;;;;;;;15.02;9.50;;;18.30;91.20;;;;;;4994647;28;20034;-63
2023/09/14 05:17:45;;;;;;;12.30;9.00;;;18.40;91.20;;;;;;4995734;28;20042;-63
2023/09/14 05:20:11;;;;;;;11.27;8.73;;;18.30;91.20;;;;;;4992386;28;20037;-63
2023/09/14 05:22:38;;;;;;;9.95;8.43;;;18.40;91.20;;;;;;4993991;28;20030;-64
2023/09/14 05:25:05;;;;;;;12.27;9.35;;;18.40;91.20;;;;;;4995574;28;20038;-64
2023/09/14 05:27:40;;;;;;;10.55;9.23;;;18.40;91.20;;;;;;4997428;28;20060;-64
2023/09/14 05:30:08;;;;;;;12.88;9.38;;;18.40;91.30;;;;;;4990469;28;20080;-63
2023/09/14 05:32:35;;;;;;;11.82;9.40;;;18.50;91.20;;;;;;4995443;28;20045;-63
2023/09/14 05:35:00;;;;;;;12.25;9.88;;;18.50;91.20;;;;;;4996132;28;20095;-64
2023/09/14 05:37:27;;;;;;;12.20;9.55;;;18.50;91.20;;;;;;4991460;28;20441;-64
2023/09/14 05:39:53;;;;;;;11.50;9.70;;;18.50;91.20;;;;;;4993728;28;20034;-64
2023/09/14 05:42:18;;;;;;;11.65;9.68;;;18.60;91.20;;;;;;4995256;28;20968;-64
2023/09/14 05:44:44;;;;;;;11.80;9.57;;;18.60;91.10;;;;;;4994634;28;20153;-64
2023/09/14 05:47:10;;;;;;;12.52;9.88;;;18.70;91.10;;;;;;4992683;28;20035;-64
2023/09/14 05:49:35;;;;;;;15.25;9.93;;;18.70;91.00;;;;;;4994129;28;20046;-64
2023/09/14 05:52:01;;;;;;;12.43;9.88;;;18.80;91.00;;;;;;4998472;28;20038;-63
2023/09/14 05:54:26;;;;;;;11.93;9.93;;;18.70;90.90;;;;;;4994127;28;20573;-63
2023/09/14 05:56:52;;;;;;;13.70;9.90;;;18.80;90.90;;;;;;4995151;28;20065;-63
2023/09/14 05:59:17;;;;;;;13.65;10.20;;;18.80;90.80;;;;;;4996112;28;20030;-64
2023/09/14 06:01:43;;;;;;;11.43;9.20;;;18.90;90.80;;;;;;4992382;28;20116;-64
2023/09/14 06:04:09;;;;;;;12.38;10.18;;;18.80;90.70;;;;;;4993329;28;20037;-64
2023/09/14 06:06:35;;;;;;;15.57;10.88;;;18.90;90.70;;;;;;4994179;28;20116;-63
2023/09/14 06:09:00;;;;;;;14.18;10.32;;;18.80;90.60;;;;;;4991640;28;20065;-64
2023/09/14 06:11:27;;;;;;;13.13;11.02;;;18.80;90.60;;;;;;4993006;28;20041;-64
2023/09/14 06:13:53;;;;;;;15.73;10.48;;;18.80;90.70;;;;;;4995856;28;20026;-64
2023/09/14 06:16:19;;;;;;;12.68;10.70;;;18.80;90.70;;;;;;4995037;28;20735;-64
2023/09/14 06:18:46;;;;;;;12.18;10.77;;;18.80;90.70;;;;;;4996566;28;20049;-64
2023/09/14 06:21:12;;;;;;;14.23;11.07;;;18.70;90.80;;;;;;4989987;28;20468;-64
2023/09/14 06:23:38;;;;;;;14.48;11.48;;;18.70;90.90;;;;;;4995243;28;20056;-63
2023/09/14 06:26:04;;;;;;;15.10;11.25;;;18.80;91.00;;;;;;4996273;28;20092;-64
2023/09/14 06:28:29;;;;;;;12.95;10.48;;;18.80;91.00;;;;;;4998159;28;20669;-63
2023/09/14 06:30:55;;;;;;;15.15;10.77;;;18.70;91.00;;;;;;4997810;28;20045;-64
2023/09/14 06:33:21;;;;;;;13.98;10.65;;;18.80;91.00;;;;;;4990620;28;20034;-64
2023/09/14 06:35:47;;;;;;;13.95;10.48;;;18.80;91.00;;;;;;4996782;28;20045;-63
2023/09/14 06:38:12;;;;;;;13.38;10.93;;;18.80;91.10;;;;;;4993045;28;20116;-63
2023/09/14 06:40:38;;;;;;;14.95;11.25;;;18.80;91.00;;;;;;4996144;28;20087;-64
2023/09/14 06:43:04;;;;;;;12.80;10.43;;;18.80;90.90;;;;;;4995457;28;20030;-62
2023/09/14 06:45:30;;;;;;;15.68;11.63;;;18.80;90.90;;;;;;4994832;28;20129;-63
2023/09/14 06:47:56;;;;;;;12.95;10.88;;;18.80;90.80;;;;;;4996701;28;20452;-64
2023/09/14 06:50:22;;;;;;;13.45;11.18;;;18.80;90.80;;;;;;4994395;28;20036;-64
2023/09/14 06:52:47;;;;;;;14.80;10.75;;;18.80;90.80;;;;;;4996476;28;20132;-63
2023/09/14 06:55:13;;;;;;;14.30;11.40;;;18.80;90.80;;;;;;4995346;28;20038;-63
2023/09/14 06:57:38;;;;;;;15.15;11.88;;;18.80;90.80;;;;;;4995660;28;20048;-63
2023/09/14 07:00:13;;;;;;;14.40;11.45;;;18.80;90.80;;;;;;4993493;28;20038;-62
2023/09/14 07:02:40;;;;;;;;;;;18.80;90.90;;;;;;4994844;28;20333;-63
2023/09/14 07:05:06;;;;;;;14.18;11.00;;;18.80;91.10;;;;;;4993666;28;20357;-63
2023/09/14 07:07:31;;;;;;;12.60;10.52;;;18.80;90.80;;;;;;4993795;28;20041;-63
2023/09/14 07:09:57;;;;;;;14.32;11.40;;;18.80;90.80;;;;;;4994465;28;20037;-63
2023/09/14 07:12:23;;;;;;;13.15;10.57;;;18.80;90.70;;;;;;4992023;28;20520;-62
2023/09/14 07:14:49;;;;;;;12.90;10.95;;;18.80;90.70;;;;;;4994438;28;20038;-63
2023/09/14 07:17:16;;;;;;;14.75;11.77;;;18.80;90.80;;;;;;4994754;28;20038;-64
2023/09/14 07:19:42;;;;;;;16.60;11.30;;;18.80;90.80;;;;;;4993314;28;20041;-63
2023/09/14 07:22:07;;;;;;;13.80;10.75;;;18.80;90.80;;;;;;4976532;28;20497;-63
2023/09/14 07:24:33;;;;;;;15.13;10.85;;;18.90;90.80;;;;;;4992701;28;20041;-63
2023/09/14 07:26:59;;;;;;;14.27;11.27;;;18.90;90.70;;;;;;4992079;28;20031;-62
2023/09/14 07:29:25;;;;;;;13.18;10.85;;;18.90;90.70;;;;;;4993092;28;20112;-63
2023/09/14 07:31:51;;;;;;;14.13;10.88;;;18.90;90.80;;;;;;4993232;28;20030;-62
2023/09/14 07:34:16;;;;;;;12.63;11.05;;;19.00;90.70;;;;;;4990467;28;20516;-63
2023/09/14 07:36:42;;;;;;;14.30;11.75;;;19.00;90.60;;;;;;4993773;28;20421;-63
2023/09/14 07:39:08;;;;;;;15.93;12.20;;;19.10;90.60;;;;;;4992274;28;20659;-63
2023/09/14 07:41:33;;;;;;;15.93;12.05;;;19.10;90.60;;;;;;4992721;28;20077;-63
2023/09/14 07:43:59;;;;;;;16.13;11.57;;;19.10;90.70;;;;;;4989532;28;20034;-63
2023/09/14 07:46:24;;;;;;;14.20;11.30;;;19.10;90.70;;;;;;4994173;28;20414;-64
2023/09/14 07:48:50;;;;;;;13.77;11.75;;;19.20;90.70;;;;;;4991570;28;20080;-63
2023/09/14 07:51:15;;;;;;;15.82;12.00;;;19.20;90.70;;;;;;4994970;28;20042;-63
2023/09/14 07:53:41;;;;;;;15.73;12.05;;;19.20;90.60;;;;;;4994511;28;20035;-63
2023/09/14 07:56:07;;;;;;;14.10;11.63;;;19.20;90.60;;;;;;4995216;28;20506;-62
2023/09/14 07:58:32;;;;;;;13.20;11.55;;;19.20;90.40;;;;;;4994361;28;20045;-63
2023/09/14 08:00:58;;;;;;;15.15;11.98;;;19.30;90.30;;;;;;4995159;28;20085;-63
2023/09/14 08:03:25;;;;;;;14.23;11.10;;;19.30;90.20;;;;;;4995637;28;20168;-63
2023/09/14 08:05:52;;;;;;;15.23;11.40;;;19.30;90.30;;;;;;4998500;28;20152;-63
2023/09/14 08:08:18;;;;;;;13.93;12.23;;;19.30;90.50;;;;;;4999036;28;20401;-64
2023/09/14 08:10:51;;;;;;;15.10;12.77;;;19.30;90.40;;;;;;4996760;28;20072;-62
2023/09/14 08:13:16;;;;;;;13.23;11.02;;;19.40;90.00;;;;;;4997310;28;20650;-62
2023/09/14 08:15:42;;;;;;;15.52;11.48;;;19.40;90.20;;;;;;4999381;28;20034;-63
2023/09/14 08:18:08;;;;;;;15.05;11.38;;;19.40;90.10;;;;;;4996279;28;20046;-63
2023/09/14 08:20:38;;;;;;;15.38;11.43;;;19.40;90.00;;;;;;4999368;28;20034;-64
2023/09/14 08:23:03;;;;;;;13.80;11.48;;;19.40;89.90;;;;;;5001792;28;20034;-63
2023/09/14 08:25:29;;;;;;;16.13;11.80;;;19.40;89.90;;;;;;5001891;28;20034;-63
2023/09/14 08:27:56;;;;;;;13.85;11.88;;;19.40;89.50;;;;;;5002305;28;20061;-63
2023/09/14 08:30:22;;;;;;;13.10;11.70;;;19.40;89.70;;;;;;5001186;28;20045;-64
2023/09/14 08:32:48;;;;;;;14.27;11.48;;;19.50;90.00;;;;;;4995485;28;20053;-63
2023/09/14 08:35:22;;;;;;;12.38;11.02;;;19.50;90.00;;;;;;4999930;28;20042;-63
2023/09/14 08:37:49;;;;;;;12.45;11.05;;;19.50;89.50;;;;;;5000217;28;20505;-63
2023/09/14 08:40:14;;;;;;;12.60;11.13;;;19.50;89.60;;;;;;4994998;28;20038;-64
2023/09/14 08:42:42;;;;;;;13.05;11.30;;;19.60;89.80;;;;;;4996302;28;20038;-63
2023/09/14 08:45:11;;;;;;;12.50;11.07;;;19.60;89.20;;;;;;5000577;28;20092;-63
2023/09/14 08:47:39;;;;;;;12.07;10.75;;;19.70;89.50;;;;;;5000050;28;20109;-63
2023/09/14 08:50:05;;;;;;;12.60;11.23;;;19.70;89.20;;;;;;4998817;28;20042;-63
2023/09/14 08:52:33;;;;;;;13.15;11.40;;;19.70;88.80;;;;;;4999819;28;20061;-64
2023/09/14 08:54:59;;;;;;;14.73;11.30;;;19.80;88.60;;;;;;5001392;28;20038;-63
2023/09/14 08:57:25;;;;;;;13.27;11.18;;;19.80;88.50;;;;;;5001442;28;20523;-64
2023/09/14 08:59:52;;;;;;;14.00;11.48;;;19.80;88.70;;;;;;4999492;28;20180;-62
2023/09/14 09:02:19;;;;;;;12.20;10.77;;;19.80;88.80;;;;;;4997048;28;20457;-63
2023/09/14 09:04:44;;;;;;;15.77;12.18;;;19.90;88.40;;;;;;4993999;28;21064;-64
2023/09/14 09:07:10;;;;;;;15.27;12.02;;;20.00;88.30;;;;;;4997254;28;20030;-63
2023/09/14 09:09:36;;;;;;;13.45;11.00;;;20.00;87.90;;;;;;4995562;28;20510;-63
2023/09/14 09:12:02;;;;;;;13.32;11.52;;;20.00;88.00;;;;;;4994778;28;20037;-63
2023/09/14 09:14:31;;;;;;;13.50;12.10;;;20.10;88.00;;;;;;4995729;28;20030;-63
2023/09/14 09:16:57;;;;;;;14.13;12.18;;;20.10;87.60;;;;;;4996213;28;20042;-63
2023/09/14 09:19:23;;;;;;;13.38;11.50;;;20.20;87.70;;;;;;4993294;28;20413;-64
2023/09/14 09:21:49;;;;;;;12.73;11.35;;;20.20;87.80;;;;;;4997428;28;20053;-63
2023/09/14 09:24:26;;;;;;;12.50;11.20;;;20.30;88.00;;;;;;4993187;28;20495;-62
2023/09/14 09:26:51;;;;;;;12.48;11.18;;;20.40;87.30;;;;;;4996250;28;20100;-63
2023/09/14 09:29:19;;;;;;;13.13;11.75;;;20.50;87.70;;;;;;4995382;28;20045;-63
2023/09/14 09:31:46;;;;;;;16.30;12.10;;;20.60;88.30;;;;;;4994834;28;20048;-63
2023/09/14 09:34:13;;;;;;;13.32;11.38;;;20.70;87.20;;;;;;4994756;28;20046;-65
2023/09/14 09:36:39;;;;;;;12.98;11.00;;;20.80;86.60;;;;;;4994936;28;20053;-64
2023/09/14 09:39:06;;;;;;;11.70;10.38;;;20.90;86.10;;;;;;4996073;28;20361;-62
2023/09/14 09:41:35;;;;;;;12.43;10.45;;;20.90;86.10;;;;;;4998370;28;20034;-64
2023/09/14 09:44:06;;;;;;;12.65;10.88;;;20.90;85.70;;;;;;4997761;28;20030;-64
2023/09/14 09:46:35;;;;;;;12.82;10.93;;;21.00;85.30;;;;;;4997562;28;20031;-64
2023/09/14 09:49:03;;;;;;;13.38;10.88;;;21.00;85.40;;;;;;4999803;28;20034;-64
2023/09/14 09:51:32;;;;;;;12.50;10.45;;;21.00;84.60;;;;;;4999060;28;20038;-64
2023/09/14 09:54:02;;;;;;;11.90;10.68;;;21.10;85.20;;;;;;4997053;28;20034;-64
2023/09/14 09:56:28;;;;;;;12.15;10.95;;;21.10;84.60;;;;;;4995946;28;20125;-64
2023/09/14 09:58:54;;;;;;;12.40;11.10;;;21.10;84.50;;;;;;4995035;28;20046;-64
2023/09/14 10:01:22;;;;;;;14.43;11.32;;;21.10;84.50;;;;;;4997420;28;20476;-64
2023/09/14 10:03:48;;;;;;;11.95;10.48;;;21.10;84.10;;;;;;4996933;28;20042;-64
2023/09/14 10:06:14;;;;;;;11.90;10.52;;;21.10;84.60;;;;;;4997214;28;20438;-64
2023/09/14 10:08:39;;;;;;;11.82;10.57;;;21.20;85.00;;;;;;4998162;28;20121;-64
2023/09/14 10:11:06;;;;;;;11.45;10.25;;;21.20;85.00;;;;;;4993856;28;20050;-64
2023/09/14 10:13:32;;;;;;;12.75;10.77;;;21.30;84.00;;;;;;4993765;28;20090;-64
2023/09/14 10:16:00;;;;;;;11.82;10.00;;;21.30;84.30;;;;;;4998695;28;20030;-64
2023/09/14 10:18:28;;;;;;;10.98;9.45;;;21.40;84.00;;;;;;4995392;28;20133;-62
2023/09/14 10:20:55;;;;;;;10.43;9.43;;;21.50;83.80;;;;;;4995556;28;20637;-63
2023/09/14 10:23:22;;;;;;;11.73;10.35;;;21.50;82.90;;;;;;4995379;28;20494;-61
2023/09/14 10:25:51;;;;;;;13.20;11.00;;;21.60;82.20;;;;;;4997361;28;20065;-64
2023/09/14 10:28:19;;;;;;;12.52;11.05;;;21.60;81.70;;;;;;4997486;28;20448;-63
2023/09/14 10:30:45;;;;;;;11.00;9.90;;;21.70;81.90;;;;;;4996965;28;20046;-63
2023/09/14 10:33:13;;;;;;;10.43;9.30;;;21.60;82.00;;;;;;4996400;28;20041;-63
2023/09/14 10:35:40;;;;;;;10.57;9.00;;;21.60;82.30;;;;;;4995817;28;20069;-64
2023/09/14 10:38:09;;;;;;;11.07;9.15;;;21.70;82.60;;;;;;4996448;28;20042;-64
2023/09/14 10:40:38;;;;;;;9.60;8.65;;;21.70;81.20;;;;;;4995792;28;20088;-63
2023/09/14 10:43:05;;;;;;;11.20;8.68;;;21.80;81.10;;;;;;4995264;28;20108;-64
2023/09/14 10:45:35;;;;;;;9.30;8.30;;;21.80;81.60;;;;;;4995321;28;20022;-63
2023/09/14 10:48:04;;;;;;;11.43;9.48;;;21.80;80.90;;;;;;4995022;28;20041;-61
2023/09/14 10:50:31;;;;;;;10.57;9.38;;;21.80;79.60;;;;;;4992438;28;20633;-60
2023/09/14 10:52:57;;;;;;;10.73;9.13;;;21.90;80.00;;;;;;4996879;28;20465;-64
2023/09/14 10:55:26;;;;;;;10.40;9.40;;;21.90;80.20;;;;;;4991076;28;20042;-64
2023/09/14 10:57:52;;;;;;;11.65;10.45;;;21.90;79.40;;;;;;4993998;28;20042;-64
2023/09/14 11:00:36;;;;;;;9.95;8.88;;;21.90;79.30;;;;;;4994079;28;20034;-63
2023/09/14 11:03:02;;;;;;;11.40;9.45;;;22.00;79.30;;;;;;4993901;28;20034;-64
2023/09/14 11:05:40;;;;;;;10.65;9.60;;;22.10;80.10;;;;;;4992388;28;20076;-64
2023/09/14 11:08:06;;;;;;;11.38;10.23;;;22.20;79.50;;;;;;4995151;28;20084;-65
2023/09/14 11:10:34;;;;;;;11.23;9.30;;;22.30;79.90;;;;;;4996689;28;20029;-65
2023/09/14 11:13:24;;;;;;;10.95;9.55;;;22.40;80.00;;;;;;4985742;28;20049;-64
2023/09/14 11:16:18;;;;;;;9.18;8.27;;;22.50;78.90;;;;;;4989710;28;20118;-64
2023/09/14 11:18:43;;;;;;;8.73;7.88;;;22.60;74.90;;;;;;4993804;28;20033;-64
2023/09/14 11:21:31;;;;;;;8.75;7.82;;;22.70;77.00;;;;;;4989960;28;20244;-59
2023/09/14 11:23:57;;;;;;;10.18;8.98;;;22.70;73.70;;;;;;4994219;28;20042;-64
2023/09/14 11:26:33;;;;;;;9.18;7.88;;;22.70;76.30;;;;;;4995345;28;20030;-65
2023/09/14 11:29:00;;;;;;;10.25;7.10;;;22.70;76.60;;;;;;4995328;28;20089;-64
2023/09/14 11:31:53;;;;;;;7.95;7.15;;;22.70;77.30;;;;;;4994413;28;20030;-64
2023/09/14 11:34:22;;;;;;;10.23;7.55;;;22.70;75.80;;;;;;4995088;28;20063;-63
2023/09/14 11:36:51;;;;;;;8.85;7.50;;;22.80;77.20;;;;;;4999311;28;20262;-64
2023/09/14 11:39:16;;;;;;;7.88;6.97;;;22.80;77.50;;;;;;4993591;28;20042;-65
2023/09/14 11:41:48;;;;;;;10.48;8.18;;;22.90;77.70;;;;;;4994487;28;20040;-65
2023/09/14 11:44:14;;;;;;;7.53;6.80;;;23.00;77.30;;;;;;4993012;28;20513;-65
2023/09/14 11:46:41;;;;;;;7.78;7.03;;;23.10;77.80;;;;;;4994572;28;20031;-65
2023/09/14 11:49:07;;;;;;;7.05;5.97;;;23.20;77.00;;;;;;4993584;28;20042;-65
2023/09/14 11:51:33;;;;;;;8.05;6.47;;;23.20;76.50;;;;;;4991742;28;20060;-64
2023/09/14 11:54:00;;;;;;;7.57;6.65;;;23.30;76.10;;;;;;4994266;28;20497;-64
2023/09/14 11:56:30;;;;;;;9.15;6.63;;;23.40;76.10;;;;;;4991985;28;20121;-65
2023/09/14 11:59:00;;;;;;;7.88;6.50;;;23.40;75.40;;;;;;4993827;28;20580;-64
2023/09/14 12:01:27;;;;;;;7.78;6.97;;;23.40;74.70;;;;;;4993982;28;20630;-64
2023/09/14 12:03:54;;;;;;;7.82;6.78;;;23.50;74.10;;;;;;4995226;28;20042;-63
2023/09/14 12:06:19;;;;;;;6.78;6.07;;;23.60;73.70;;;;;;4995409;28;20121;-64
2023/09/14 12:08:49;;;;;;;6.35;5.72;;;23.60;73.70;;;;;;4991501;28;20168;-63
2023/09/14 12:11:15;;;;;;;8.73;5.95;;;23.60;72.70;;;;;;4994054;28;20072;-64
2023/09/14 12:13:54;;;;;;;6.47;5.85;;;23.60;73.10;;;;;;4993067;28;20397;-65
2023/09/14 12:16:21;;;;;;;8.38;5.78;;;23.70;72.50;;;;;;4994150;28;20113;-65
2023/09/14 12:18:48;;;;;;;6.47;5.78;;;23.70;72.60;;;;;;4990634;28;20053;-64
2023/09/14 12:21:14;;;;;;;5.75;5.22;;;23.70;72.50;;;;;;4993220;28;20070;-64
2023/09/14 12:23:43;;;;;;;6.20;5.60;;;23.70;72.70;;;;;;4991127;28;20076;-64
2023/09/14 12:26:12;;;;;;;6.00;4.90;;;23.70;70.80;;;;;;4993464;28;20050;-64
2023/09/14 12:28:38;;;;;;;6.72;5.18;;;23.70;71.30;;;;;;4991646;28;20030;-63
2023/09/14 12:31:04;;;;;;;6.40;5.10;;;23.70;71.60;;;;;;4994773;28;20042;-63
2023/09/14 12:33:30;;;;;;;6.40;5.00;;;23.60;71.50;;;;;;4991589;28;20401;-67
2023/09/14 12:35:57;;;;;;;6.90;5.40;;;23.60;71.30;;;;;;4990943;28;20045;-64
2023/09/14 12:38:23;;;;;;;6.28;5.38;;;23.60;71.30;;;;;;4993648;28;20042;-64